createdAt,value
2023-08-14T00:00:49.499Z,89.18
2023-08-14T00:03:16.431Z,89.22
2023-08-14T00:05:43.129Z,89.32
2023-08-14T00:08:09.849Z,89.75
2023-08-14T00:10:37.165Z,89.31
2023-08-14T00:13:03.845Z,89.36
2023-08-14T00:15:30.634Z,89.17
2023-08-14T00:17:57.207Z,88.94
2023-08-14T00:20:23.704Z,88.87
2023-08-14T00:22:50.174Z,89.53
2023-08-14T00:25:16.627Z,89.93
2023-08-14T00:27:43.133Z,90.04
2023-08-14T00:30:09.766Z,89.34
2023-08-14T00:32:36.237Z,89.81
2023-08-14T00:35:03.768Z,89.80
2023-08-14T00:37:43.670Z,89.98
2023-08-14T00:40:11.641Z,89.69
2023-08-14T00:42:39.822Z,89.59
2023-08-14T00:45:07.549Z,89.37
2023-08-14T00:47:35.610Z,89.71
2023-08-14T00:50:06.727Z,89.80
2023-08-14T00:52:36.380Z,89.68
2023-08-14T00:55:08.852Z,89.41
2023-08-14T00:57:36.416Z,90.20
2023-08-14T01:00:08.442Z,90.19
2023-08-14T01:02:35.844Z,90.40
2023-08-14T01:05:02.441Z,89.90
2023-08-14T01:07:31.103Z,90.07
2023-08-14T01:09:58.324Z,89.82
2023-08-14T01:12:27.773Z,89.60
2023-08-14T01:15:02.530Z,89.83
2023-08-14T01:17:33.305Z,90.34
2023-08-14T01:20:01.209Z,89.81
2023-08-14T01:22:55.508Z,89.98
2023-08-14T01:25:31.510Z,90.17
2023-08-14T01:27:59.475Z,90.28
2023-08-14T01:30:26.247Z,90.51
2023-08-14T01:32:53.632Z,89.44
2023-08-14T01:35:22.731Z,89.67
2023-08-14T01:38:08.056Z,89.20
2023-08-14T01:40:46.286Z,89.82
2023-08-14T01:43:23.149Z,89.42
2023-08-14T01:45:50.010Z,90.04
2023-08-14T01:48:16.607Z,89.67
2023-08-14T01:50:44.415Z,89.57
2023-08-14T01:53:11.069Z,89.88
2023-08-14T01:55:37.528Z,89.99
2023-08-14T01:58:04.214Z,89.63
2023-08-14T02:00:33.192Z,89.95
2023-08-14T02:03:00.104Z,90.78
2023-08-14T02:05:26.741Z,90.32
2023-08-14T02:07:53.228Z,90.30
2023-08-14T02:10:19.725Z,90.09
2023-08-14T02:12:46.275Z,90.00
2023-08-14T02:15:12.813Z,90.38
2023-08-14T02:17:39.580Z,90.78
2023-08-14T02:20:06.740Z,90.36
2023-08-14T02:22:33.236Z,90.68
2023-08-14T02:24:59.708Z,89.80
2023-08-14T02:27:26.118Z,90.01
2023-08-14T02:29:52.520Z,90.06
2023-08-14T02:32:19.242Z,89.78
2023-08-14T02:34:48.158Z,90.21
2023-08-14T02:37:16.255Z,89.97
2023-08-14T02:39:43.122Z,90.34
2023-08-14T02:42:09.810Z,90.31
2023-08-14T02:44:37.084Z,89.13
2023-08-14T02:47:04.564Z,90.13
2023-08-14T02:49:31.476Z,90.00
2023-08-14T02:51:58.286Z,89.97
2023-08-14T02:54:24.975Z,89.82
2023-08-14T02:56:54.294Z,90.16
2023-08-14T02:59:22.078Z,89.97
2023-08-14T03:01:48.616Z,90.03
2023-08-14T03:04:16.874Z,90.02
2023-08-14T03:06:43.359Z,89.80
2023-08-14T03:09:10.991Z,89.84
2023-08-14T03:11:37.508Z,90.33
2023-08-14T03:14:05.616Z,89.97
2023-08-14T03:16:32.166Z,89.87
2023-08-14T03:18:58.555Z,89.59
2023-08-14T03:21:25.035Z,89.71
2023-08-14T03:23:51.484Z,89.70
2023-08-14T03:26:17.953Z,89.63
2023-08-14T03:28:44.469Z,89.81
2023-08-14T03:31:10.980Z,89.44
2023-08-14T03:33:37.471Z,89.51
2023-08-14T03:36:04.137Z,90.04
2023-08-14T03:38:32.076Z,90.45
2023-08-14T03:40:59.458Z,90.38
2023-08-14T03:43:26.049Z,89.80
2023-08-14T03:45:52.461Z,89.95
2023-08-14T03:48:19.049Z,90.27
2023-08-14T03:50:47.692Z,90.39
2023-08-14T03:53:14.526Z,90.41
2023-08-14T03:55:41.637Z,90.03
2023-08-14T03:58:08.295Z,90.57
2023-08-14T04:00:35.765Z,91.21
2023-08-14T04:03:03.185Z,91.35
2023-08-14T04:05:30.070Z,91.01
2023-08-14T04:07:56.683Z,91.35
2023-08-14T04:10:24.588Z,91.38
2023-08-14T04:12:51.943Z,92.13
2023-08-14T04:15:18.752Z,91.55
2023-08-14T04:17:45.315Z,91.21
2023-08-14T04:20:12.232Z,90.91
2023-08-14T04:22:38.924Z,91.21
2023-08-14T04:25:05.956Z,91.85
2023-08-14T04:27:32.626Z,91.47
2023-08-14T04:29:59.316Z,91.32
2023-08-14T04:32:26.705Z,91.43
2023-08-14T04:34:53.283Z,91.44
2023-08-14T04:37:19.824Z,90.90
2023-08-14T04:39:46.274Z,91.23
2023-08-14T04:42:12.737Z,91.44
2023-08-14T04:44:39.207Z,91.37
2023-08-14T04:47:05.844Z,90.69
2023-08-14T04:49:32.304Z,90.74
2023-08-14T04:51:58.859Z,90.96
2023-08-14T04:54:28.199Z,91.59
2023-08-14T04:56:54.898Z,91.09
2023-08-14T04:59:21.453Z,91.79
2023-08-14T05:01:47.943Z,91.62
2023-08-14T05:04:14.569Z,91.74
2023-08-14T05:06:41.560Z,91.22
2023-08-14T05:09:23.985Z,92.18
2023-08-14T05:11:52.679Z,92.96
2023-08-14T05:14:20.201Z,91.74
2023-08-14T05:16:47.502Z,93.27
2023-08-14T05:19:14.404Z,92.86
2023-08-14T05:21:41.037Z,92.36
2023-08-14T05:24:07.960Z,93.43
2023-08-14T05:26:34.645Z,93.85
2023-08-14T05:29:01.278Z,94.43
2023-08-14T05:31:27.852Z,94.09
2023-08-14T05:33:54.423Z,93.80
2023-08-14T05:36:21.642Z,94.61
2023-08-14T05:38:48.659Z,94.68
2023-08-14T05:41:15.249Z,94.00
2023-08-14T05:43:41.742Z,94.04
2023-08-14T05:46:08.464Z,94.71
2023-08-14T05:48:35.143Z,94.45
2023-08-14T05:51:01.688Z,94.44
2023-08-14T05:53:28.293Z,94.96
2023-08-14T05:55:54.886Z,94.55
2023-08-14T05:58:21.433Z,94.88
2023-08-14T06:00:48.559Z,94.34
2023-08-14T06:03:20.267Z,94.85
2023-08-14T06:05:52.427Z,93.95
2023-08-14T06:08:19.130Z,93.90
2023-08-14T06:10:45.715Z,94.46
2023-08-14T06:13:12.401Z,94.97
2023-08-14T06:15:39.184Z,94.27
2023-08-14T06:18:06.086Z,94.07
2023-08-14T06:20:32.624Z,94.33
2023-08-14T06:22:59.211Z,94.75
2023-08-14T06:25:29.830Z,94.48
2023-08-14T06:27:56.500Z,94.72
2023-08-14T06:30:24.104Z,94.60
2023-08-14T06:32:50.779Z,94.39
2023-08-14T06:35:18.743Z,95.19
2023-08-14T06:37:45.246Z,95.26
2023-08-14T06:40:12.425Z,95.53
2023-08-14T06:42:39.100Z,94.96
2023-08-14T06:45:05.943Z,94.84
2023-08-14T06:47:32.610Z,95.21
2023-08-14T06:49:59.207Z,95.15
2023-08-14T06:52:25.786Z,94.97
2023-08-14T06:54:52.265Z,95.69
2023-08-14T06:57:19.001Z,95.16
2023-08-14T06:59:46.804Z,94.75
2023-08-14T07:02:14.046Z,95.45
2023-08-14T07:04:40.678Z,94.93
2023-08-14T07:07:07.208Z,95.29
2023-08-14T07:09:34.247Z,94.61
2023-08-14T07:12:00.786Z,95.29
2023-08-14T07:14:30.588Z,95.27
2023-08-14T07:16:57.480Z,95.65
2023-08-14T07:19:24.294Z,94.83
2023-08-14T07:21:50.917Z,94.51
2023-08-14T07:24:17.462Z,95.02
2023-08-14T07:26:43.981Z,94.33
2023-08-14T07:29:10.493Z,94.39
2023-08-14T07:31:37.027Z,94.40
2023-08-14T07:34:03.658Z,95.02
2023-08-14T07:36:30.237Z,93.94
2023-08-14T07:38:56.963Z,92.83
2023-08-14T07:41:23.622Z,91.94
2023-08-14T07:43:50.130Z,92.04
2023-08-14T07:46:18.546Z,92.16
2023-08-14T07:48:48.117Z,92.26
2023-08-14T07:51:17.653Z,92.37
2023-08-14T07:53:44.129Z,92.12
2023-08-14T07:56:10.652Z,92.33
2023-08-14T07:58:37.363Z,91.10
2023-08-14T08:01:04.515Z,90.50
2023-08-14T08:03:30.967Z,90.54
2023-08-14T08:05:57.456Z,89.98
2023-08-14T08:08:24.124Z,90.89
2023-08-14T08:10:50.824Z,88.96
2023-08-14T08:13:17.432Z,88.76
2023-08-14T08:15:44.013Z,88.69
2023-08-14T08:18:10.598Z,87.20
2023-08-14T08:20:37.199Z,88.04
2023-08-14T08:23:05.154Z,87.86
2023-08-14T08:25:31.841Z,85.75
2023-08-14T08:27:58.293Z,87.54
2023-08-14T08:30:24.847Z,85.57
2023-08-14T08:32:51.459Z,85.67
2023-08-14T08:35:17.896Z,84.50
2023-08-14T08:37:44.438Z,83.74
2023-08-14T08:40:11.318Z,83.24
2023-08-14T08:42:39.292Z,82.81
2023-08-14T08:45:07.509Z,82.74
2023-08-14T08:47:39.705Z,82.62
2023-08-14T08:50:08.989Z,81.74
2023-08-14T08:52:35.933Z,80.92
2023-08-14T08:55:03.658Z,81.17
2023-08-14T08:57:30.467Z,80.12
2023-08-14T08:59:59.851Z,77.76
2023-08-14T09:02:27.266Z,79.68
2023-08-14T09:04:53.965Z,77.61
2023-08-14T09:07:20.629Z,79.84
2023-08-14T09:09:47.246Z,79.57
2023-08-14T09:12:13.818Z,77.27
2023-08-14T09:14:45.599Z,79.81
2023-08-14T09:17:14.123Z,78.50
2023-08-14T09:19:42.574Z,75.42
2023-08-14T09:22:12.264Z,75.46
2023-08-14T09:24:44.858Z,75.99
2023-08-14T09:27:11.541Z,76.00
2023-08-14T09:29:38.289Z,77.17
2023-08-14T09:32:04.823Z,76.47
2023-08-14T09:34:33.860Z,73.97
2023-08-14T09:37:00.376Z,74.60
2023-08-14T09:39:26.979Z,73.40
2023-08-14T09:41:55.769Z,72.32
2023-08-14T09:44:30.952Z,72.33
2023-08-14T09:47:00.921Z,73.53
2023-08-14T09:49:28.552Z,71.95
2023-08-14T09:51:58.703Z,74.04
2023-08-14T09:54:42.311Z,73.66
2023-08-14T09:57:09.744Z,73.48
2023-08-14T09:59:47.108Z,70.34
2023-08-14T10:02:17.812Z,72.82
2023-08-14T10:04:53.681Z,70.75
2023-08-14T10:07:24.252Z,71.82
2023-08-14T10:09:52.754Z,70.89
2023-08-14T10:12:24.073Z,72.44
2023-08-14T10:14:59.161Z,70.25
2023-08-14T10:17:32.934Z,70.83
2023-08-14T10:20:05.762Z,71.60
2023-08-14T10:22:34.737Z,67.99
2023-08-14T10:25:04.941Z,68.82
2023-08-14T10:27:32.181Z,68.92
2023-08-14T10:30:00.181Z,67.54
2023-08-14T10:32:28.209Z,67.25
2023-08-14T10:34:56.819Z,67.17
2023-08-14T10:37:28.047Z,68.06
2023-08-14T10:40:17.132Z,67.46
2023-08-14T10:42:47.187Z,69.76
2023-08-14T10:45:18.332Z,68.90
2023-08-14T10:47:45.680Z,68.17
2023-08-14T10:50:20.478Z,65.97
2023-08-14T10:52:53.881Z,66.11
2023-08-14T10:55:36.447Z,65.46
2023-08-14T10:58:41.909Z,65.51
2023-08-14T11:01:10.820Z,63.88
2023-08-14T11:04:13.847Z,64.01
2023-08-14T11:07:03.724Z,62.03
2023-08-14T11:09:33.724Z,60.49
2023-08-14T11:12:06.326Z,60.83
2023-08-14T11:14:36.678Z,59.95
2023-08-14T11:17:03.970Z,62.66
2023-08-14T11:19:31.056Z,61.69
2023-08-14T11:21:57.531Z,61.08
2023-08-14T11:24:25.046Z,61.49
2023-08-14T11:26:52.276Z,55.04
2023-08-14T11:29:18.803Z,56.96
2023-08-14T11:31:49.498Z,57.28
2023-08-14T11:34:17.125Z,55.78
2023-08-14T11:39:27.284Z,53.50
2023-08-14T11:41:53.809Z,53.58
2023-08-14T11:44:20.928Z,55.07
2023-08-14T11:46:49.403Z,53.25
2023-08-14T11:49:17.213Z,53.85
2023-08-14T11:51:45.168Z,54.33
2023-08-14T11:54:12.118Z,53.67
2023-08-14T11:56:38.748Z,51.72
2023-08-14T11:59:08.880Z,54.02
2023-08-14T12:01:37.704Z,51.37
2023-08-14T12:04:05.999Z,51.43
2023-08-14T12:06:33.394Z,52.07
2023-08-14T12:09:00.581Z,51.95
2023-08-14T12:11:29.087Z,51.06
2023-08-14T12:13:55.548Z,52.80
2023-08-14T12:16:23.878Z,51.44
2023-08-14T12:18:51.916Z,53.35
2023-08-14T12:21:18.428Z,52.69
2023-08-14T12:23:48.925Z,54.07
2023-08-14T12:26:16.532Z,50.47
2023-08-14T12:28:44.144Z,49.35
2023-08-14T12:31:11.629Z,50.64
2023-08-14T12:33:41.402Z,53.27
2023-08-14T12:36:08.909Z,51.02
2023-08-14T12:38:35.366Z,51.98
2023-08-14T12:41:02.290Z,52.30
2023-08-14T12:43:39.022Z,49.73
2023-08-14T12:46:10.162Z,50.67
2023-08-14T12:48:36.920Z,50.43
2023-08-14T12:51:04.685Z,49.38
2023-08-14T12:53:31.223Z,47.18
2023-08-14T12:56:03.534Z,49.92
2023-08-14T12:58:31.202Z,46.49
2023-08-14T13:01:03.821Z,47.12
2023-08-14T13:03:36.496Z,48.44
2023-08-14T13:06:05.370Z,46.50
2023-08-14T13:08:31.850Z,45.78
2023-08-14T13:10:58.380Z,48.24
2023-08-14T13:13:27.914Z,46.90
2023-08-14T13:15:54.672Z,45.47
2023-08-14T13:18:22.745Z,46.55
2023-08-14T13:20:49.427Z,46.43
2023-08-14T13:23:16.932Z,46.41
2023-08-14T13:25:43.538Z,44.57
2023-08-14T13:28:10.238Z,44.16
2023-08-14T13:30:36.840Z,43.69
2023-08-14T13:33:03.548Z,45.17
2023-08-14T13:35:30.042Z,45.97
2023-08-14T13:37:56.448Z,45.21
2023-08-14T13:40:23.630Z,45.19
2023-08-14T13:42:50.083Z,47.74
2023-08-14T13:45:19.102Z,45.53
2023-08-14T13:47:54.315Z,46.52
2023-08-14T13:50:31.740Z,46.64
2023-08-14T13:53:00.099Z,45.64
2023-08-14T13:55:29.319Z,45.18
2023-08-14T13:57:57.324Z,46.65
2023-08-14T14:00:28.602Z,47.78
2023-08-14T14:02:55.336Z,47.07
2023-08-14T14:05:22.010Z,46.97
2023-08-14T14:07:54.049Z,45.82
2023-08-14T14:10:22.023Z,44.72
2023-08-14T14:13:01.446Z,46.27
2023-08-14T14:15:29.162Z,44.72
2023-08-14T14:17:55.736Z,43.37
2023-08-14T14:20:22.404Z,43.49
2023-08-14T14:22:48.779Z,45.35
2023-08-14T14:25:15.269Z,46.18
2023-08-14T14:27:41.966Z,45.20
2023-08-14T14:30:09.061Z,43.12
2023-08-14T14:32:36.201Z,43.73
2023-08-14T14:35:03.877Z,43.45
2023-08-14T14:37:30.565Z,45.35
2023-08-14T14:39:57.051Z,44.91
2023-08-14T14:42:25.489Z,43.55
2023-08-14T14:44:54.393Z,43.51
2023-08-14T14:47:23.822Z,43.74
2023-08-14T14:49:50.892Z,44.24
2023-08-14T14:52:17.378Z,44.29
2023-08-14T14:54:43.805Z,44.23
2023-08-14T14:57:10.264Z,44.06
2023-08-14T14:59:36.784Z,44.38
2023-08-14T15:02:12.230Z,44.44
2023-08-14T15:04:46.651Z,44.71
2023-08-14T15:07:13.250Z,46.63
2023-08-14T15:09:39.692Z,46.52
2023-08-14T15:12:06.500Z,48.06
2023-08-14T15:14:32.946Z,46.03
2023-08-14T15:17:00.219Z,45.65
2023-08-14T15:19:27.526Z,44.58
2023-08-14T15:21:54.023Z,46.16
2023-08-14T15:24:20.427Z,46.59
2023-08-14T15:26:46.887Z,45.37
2023-08-14T15:29:13.565Z,44.46
2023-08-14T15:31:40.059Z,45.73
2023-08-14T15:34:06.556Z,47.40
2023-08-14T15:36:33.218Z,49.40
2023-08-14T15:39:00.386Z,47.47
2023-08-14T15:41:26.981Z,48.84
2023-08-14T15:43:53.501Z,46.47
2023-08-14T15:46:19.987Z,48.48
2023-08-14T15:48:48.205Z,49.94
2023-08-14T15:51:14.693Z,49.57
2023-08-14T15:53:41.097Z,47.45
2023-08-14T15:56:07.733Z,47.53
2023-08-14T15:58:34.148Z,46.95
2023-08-14T16:01:00.655Z,48.17
2023-08-14T16:03:27.247Z,50.42
2023-08-14T16:05:55.160Z,49.91
2023-08-14T16:08:21.578Z,50.76
2023-08-14T16:10:48.084Z,47.92
2023-08-14T16:13:14.543Z,48.59
2023-08-14T16:15:41.192Z,47.42
2023-08-14T16:18:07.650Z,48.99
2023-08-14T16:20:34.092Z,49.68
2023-08-14T16:23:00.509Z,51.03
2023-08-14T16:25:26.868Z,51.13
2023-08-14T16:27:53.378Z,50.04
2023-08-14T16:30:19.879Z,51.92
2023-08-14T16:32:47.746Z,52.80
2023-08-14T16:35:14.415Z,52.48
2023-08-14T16:37:40.871Z,52.32
2023-08-14T16:40:07.911Z,53.53
2023-08-14T16:42:34.452Z,52.77
2023-08-14T16:45:01.760Z,52.26
2023-08-14T16:47:29.243Z,52.86
2023-08-14T16:49:55.757Z,51.17
2023-08-14T16:52:22.210Z,52.01
2023-08-14T16:54:48.658Z,52.72
2023-08-14T16:57:15.141Z,52.24
2023-08-14T16:59:41.591Z,53.34
2023-08-14T17:02:08.111Z,54.16
2023-08-14T17:04:34.594Z,52.57
2023-08-14T17:07:03.149Z,54.73
2023-08-14T17:09:30.442Z,53.97
2023-08-14T17:11:57.042Z,55.12
2023-08-14T17:14:23.732Z,56.35
2023-08-14T17:16:50.730Z,54.42
2023-08-14T17:19:19.078Z,54.76
2023-08-14T17:21:49.600Z,52.53
2023-08-14T17:24:17.864Z,53.16
2023-08-14T17:26:44.370Z,54.40
2023-08-14T17:29:10.856Z,54.46
2023-08-14T17:31:37.934Z,56.33
2023-08-14T17:34:04.902Z,55.18
2023-08-14T17:36:32.434Z,55.65
2023-08-14T17:39:01.406Z,57.55
2023-08-14T17:41:27.986Z,57.38
2023-08-14T17:43:54.693Z,55.92
2023-08-14T17:46:21.163Z,56.98
2023-08-14T17:48:48.017Z,57.04
2023-08-14T17:51:14.726Z,56.08
2023-08-14T17:53:41.312Z,55.83
2023-08-14T17:56:10.403Z,58.25
2023-08-14T17:58:37.119Z,59.15
2023-08-14T18:01:03.698Z,58.20
2023-08-14T18:03:30.353Z,58.16
2023-08-14T18:05:56.881Z,60.56
2023-08-14T18:08:23.395Z,62.67
2023-08-14T18:10:49.943Z,64.02
2023-08-14T18:13:16.526Z,64.79
2023-08-14T18:15:43.426Z,64.93
2023-08-14T18:18:10.478Z,66.02
2023-08-14T18:20:37.148Z,66.50
2023-08-14T18:23:04.315Z,67.42
2023-08-14T18:25:32.077Z,68.07
2023-08-14T18:27:58.886Z,69.47
2023-08-14T18:30:25.577Z,69.16
2023-08-14T18:32:52.139Z,69.86
2023-08-14T18:35:19.020Z,70.71
2023-08-14T18:37:45.630Z,70.61
2023-08-14T18:40:12.249Z,70.96
2023-08-14T18:42:38.884Z,71.02
2023-08-14T18:45:06.304Z,71.50
2023-08-14T18:47:36.545Z,72.13
2023-08-14T18:50:03.715Z,73.92
2023-08-14T18:52:35.308Z,73.97
2023-08-14T18:55:02.009Z,74.11
2023-08-14T18:57:28.501Z,73.34
2023-08-14T18:59:55.229Z,74.57
2023-08-14T19:02:21.930Z,74.79
2023-08-14T19:04:49.069Z,75.47
2023-08-14T19:07:15.641Z,74.34
2023-08-14T19:09:42.604Z,75.69
2023-08-14T19:12:09.115Z,76.29
2023-08-14T19:14:36.534Z,76.88
2023-08-14T19:17:04.245Z,76.71
2023-08-14T19:19:30.831Z,77.09
2023-08-14T19:21:57.466Z,77.81
2023-08-14T19:24:24.265Z,77.10
2023-08-14T19:26:50.928Z,77.97
2023-08-14T19:29:17.490Z,77.92
2023-08-14T19:31:44.208Z,77.46
2023-08-14T19:34:11.158Z,78.85
2023-08-14T19:36:37.763Z,77.20
2023-08-14T19:42:28.013Z,76.72
2023-08-14T19:44:54.604Z,77.01
2023-08-14T19:47:21.391Z,77.42
2023-08-14T19:49:48.287Z,77.33
2023-08-14T19:52:15.078Z,77.54
2023-08-14T19:54:41.553Z,78.57
2023-08-14T19:57:08.246Z,77.71
2023-08-14T19:59:34.719Z,79.52
2023-08-14T20:02:01.330Z,79.49
2023-08-14T20:04:27.977Z,78.81
2023-08-14T20:06:54.494Z,79.18
2023-08-14T20:09:21.167Z,79.66
2023-08-14T20:11:47.854Z,79.41
2023-08-14T20:14:22.723Z,79.83
2023-08-14T20:17:12.704Z,79.43
2023-08-14T20:19:39.258Z,79.68
2023-08-14T20:22:13.513Z,80.15
2023-08-14T20:24:42.453Z,81.28
2023-08-14T20:27:25.192Z,81.12
2023-08-14T20:29:55.298Z,80.92
2023-08-14T20:32:34.368Z,80.68
2023-08-14T20:35:04.925Z,80.98
2023-08-14T20:37:33.896Z,81.04
2023-08-14T20:40:00.485Z,80.46
2023-08-14T20:42:26.911Z,81.41
2023-08-14T20:44:53.337Z,81.70
2023-08-14T20:47:20.934Z,81.57
2023-08-14T20:49:47.547Z,82.21
2023-08-14T20:52:14.010Z,82.29
2023-08-14T20:54:40.560Z,81.59
2023-08-14T20:57:07.473Z,82.16
2023-08-14T20:59:34.053Z,82.39
2023-08-14T21:02:00.731Z,82.47
2023-08-14T21:04:27.341Z,81.67
2023-08-14T21:06:54.043Z,82.08
2023-08-14T21:09:20.806Z,82.91
2023-08-14T21:11:47.311Z,82.08
2023-08-14T21:14:14.033Z,82.27
2023-08-14T21:16:41.455Z,82.25
2023-08-14T21:19:08.425Z,82.71
2023-08-14T21:21:35.464Z,83.58
2023-08-14T21:24:02.193Z,83.29
2023-08-14T21:26:29.662Z,83.15
2023-08-14T21:28:56.307Z,83.69
2023-08-14T21:31:23.077Z,82.98
2023-08-14T21:33:50.629Z,83.22
2023-08-14T21:36:19.811Z,82.68
2023-08-14T21:38:52.656Z,83.25
2023-08-14T21:41:27.089Z,83.64
2023-08-14T21:43:55.724Z,83.57
2023-08-14T21:46:35.613Z,83.72
2023-08-14T21:49:08.226Z,83.15
2023-08-14T21:51:34.881Z,83.71
2023-08-14T21:54:01.463Z,83.72
2023-08-14T21:56:28.076Z,83.77
2023-08-14T21:58:58.646Z,84.00
2023-08-14T22:01:25.417Z,84.49
2023-08-14T22:03:52.068Z,84.56
2023-08-14T22:06:18.988Z,84.56
2023-08-14T22:08:55.517Z,85.23
2023-08-14T22:11:29.870Z,84.41
2023-08-14T22:13:57.662Z,84.41
2023-08-14T22:16:26.084Z,84.92
2023-08-14T22:18:53.360Z,84.86
2023-08-14T22:21:21.064Z,84.63
2023-08-14T22:23:48.737Z,84.56
2023-08-14T22:26:17.365Z,84.22
2023-08-14T22:28:44.134Z,84.51
2023-08-14T22:31:15.038Z,85.01
2023-08-14T22:33:58.293Z,84.53
2023-08-14T22:36:25.395Z,84.92
2023-08-14T22:38:55.654Z,84.94
2023-08-14T22:41:22.475Z,86.21
2023-08-14T22:43:49.746Z,85.57
2023-08-14T22:46:23.461Z,85.34
2023-08-14T22:48:50.266Z,85.05
2023-08-14T22:51:22.436Z,86.39
2023-08-14T22:53:51.938Z,84.96
2023-08-14T22:56:27.234Z,85.40
2023-08-14T22:58:55.636Z,86.00
2023-08-14T23:01:22.340Z,85.57
2023-08-14T23:03:52.383Z,85.18
2023-08-14T23:06:27.923Z,85.87
2023-08-14T23:08:54.649Z,86.07
2023-08-14T23:11:37.380Z,86.77
2023-08-14T23:14:06.762Z,85.37
2023-08-14T23:16:33.512Z,86.09
2023-08-14T23:19:08.688Z,85.50
2023-08-14T23:21:49.423Z,85.95
2023-08-14T23:24:16.210Z,86.24
2023-08-14T23:26:45.092Z,85.17
2023-08-14T23:29:11.764Z,85.53
2023-08-14T23:32:04.746Z,86.11
2023-08-14T23:34:37.885Z,85.03
2023-08-14T23:37:06.003Z,84.98
2023-08-14T23:39:32.816Z,84.99
2023-08-14T23:42:12.676Z,84.14
2023-08-14T23:44:39.450Z,85.86
2023-08-14T23:47:06.576Z,85.50
2023-08-14T23:49:36.618Z,85.72
2023-08-14T23:52:03.340Z,86.24
2023-08-14T23:54:31.838Z,85.88
2023-08-14T23:57:12.322Z,86.62
2023-08-14T23:59:39.096Z,85.50
